createdAt,value
2022-08-03T00:01:53.014Z,1.38
2022-08-03T00:04:20.693Z,1.57
2022-08-03T00:06:48.260Z,1.58
2022-08-03T00:09:15.923Z,1.92
2022-08-03T00:11:43.551Z,2.10
2022-08-03T00:14:11.295Z,1.65
2022-08-03T00:16:38.884Z,1.60
2022-08-03T00:19:06.575Z,1.77
2022-08-03T00:21:34.199Z,1.33
2022-08-03T00:24:01.857Z,1.40
2022-08-03T00:26:29.471Z,1.63
2022-08-03T00:28:57.049Z,1.47
2022-08-03T00:31:39.791Z,1.52
2022-08-03T00:34:08.281Z,1.80
2022-08-03T00:36:36.104Z,1.50
2022-08-03T00:39:04.002Z,1.42
2022-08-03T00:41:32.305Z,1.70
2022-08-03T00:43:59.936Z,1.60
2022-08-03T00:46:27.512Z,1.58
2022-08-03T00:48:55.542Z,1.63
2022-08-03T00:51:24.154Z,1.63
2022-08-03T00:53:51.845Z,1.60
2022-08-03T00:56:19.828Z,1.70
2022-08-03T00:58:47.678Z,1.60
2022-08-03T01:01:15.661Z,1.38
2022-08-03T01:03:43.337Z,1.98
2022-08-03T01:06:18.269Z,1.30
2022-08-03T01:09:03.011Z,1.90
2022-08-03T01:12:01.848Z,1.35
2022-08-03T01:14:42.471Z,1.83
2022-08-03T01:17:15.558Z,1.67
2022-08-03T01:19:49.059Z,1.50
2022-08-03T01:22:34.639Z,1.65
2022-08-03T01:25:14.286Z,1.33
2022-08-03T01:27:56.842Z,1.20
2022-08-03T01:30:30.003Z,1.77
2022-08-03T01:33:11.963Z,1.67
2022-08-03T01:35:44.879Z,1.38
2022-08-03T01:38:18.252Z,1.88
2022-08-03T01:40:47.845Z,1.65
2022-08-03T01:43:55.357Z,1.63
2022-08-03T01:46:07.843Z,1.40
2022-08-03T01:48:39.860Z,1.50
2022-08-03T01:51:09.955Z,1.58
2022-08-03T01:53:42.846Z,1.45
2022-08-03T01:56:12.452Z,1.60
2022-08-03T01:58:41.292Z,1.30
2022-08-03T02:01:10.383Z,1.33
2022-08-03T02:04:00.102Z,1.65
2022-08-03T02:07:00.399Z,1.33
2022-08-03T02:09:21.126Z,1.10
2022-08-03T02:11:49.653Z,1.20
2022-08-03T02:14:19.600Z,1.10
2022-08-03T02:16:50.778Z,0.80
2022-08-03T02:19:19.633Z,0.90
2022-08-03T02:21:57.112Z,0.90
2022-08-03T02:24:30.180Z,0.60
2022-08-03T02:26:59.376Z,0.50
2022-08-03T02:29:38.711Z,0.60
2022-08-03T02:32:15.682Z,0.60
2022-08-03T02:34:47.820Z,0.45
2022-08-03T02:37:19.329Z,0.50
2022-08-03T02:39:49.287Z,0.43
2022-08-03T02:42:21.652Z,0.38
2022-08-03T02:44:52.863Z,0.43
2022-08-03T02:47:21.563Z,0.40
2022-08-03T02:49:52.154Z,0.30
2022-08-03T02:52:26.189Z,0.40
2022-08-03T02:54:57.780Z,0.30
2022-08-03T02:57:28.199Z,0.40
2022-08-03T02:59:56.654Z,0.30
2022-08-03T03:02:25.415Z,0.37
2022-08-03T03:05:53.654Z,0.50
2022-08-03T03:07:52.213Z,0.50
2022-08-03T03:10:24.940Z,0.40
2022-08-03T03:12:55.942Z,0.60
2022-08-03T03:15:28.402Z,1.07
2022-08-03T03:17:57.236Z,0.40
2022-08-03T03:20:30.195Z,0.50
2022-08-03T03:23:00.522Z,0.60
2022-08-03T03:25:32.715Z,0.57
2022-08-03T03:28:01.629Z,0.70
2022-08-03T03:30:30.188Z,0.77
2022-08-03T03:32:58.738Z,0.93
2022-08-03T03:35:28.011Z,0.52
2022-08-03T03:37:56.647Z,0.47
2022-08-03T03:40:24.929Z,0.30
2022-08-03T03:42:52.699Z,0.30
2022-08-03T03:45:22.444Z,0.20
2022-08-03T03:47:50.437Z,0.32
2022-08-03T03:50:19.109Z,0.35
2022-08-03T03:52:46.832Z,0.30
2022-08-03T03:55:18.475Z,0.20
2022-08-03T03:57:46.651Z,0.20
2022-08-03T04:00:16.672Z,0.20
2022-08-03T04:02:45.398Z,0.20
2022-08-03T04:05:32.881Z,0.30
2022-08-03T04:08:26.042Z,0.30
2022-08-03T04:11:03.134Z,0.70
2022-08-03T04:14:32.158Z,0.50
2022-08-03T04:17:03.584Z,0.50
2022-08-03T04:19:37.905Z,0.60
2022-08-03T04:22:09.970Z,0.70
2022-08-03T04:25:09.285Z,0.70
2022-08-03T04:27:40.675Z,0.77
2022-08-03T04:30:09.566Z,1.00
2022-08-03T04:32:41.856Z,0.70
2022-08-03T04:35:13.299Z,0.90
2022-08-03T04:37:47.922Z,0.65
2022-08-03T04:40:22.793Z,0.95
2022-08-03T04:42:53.813Z,0.75
2022-08-03T04:45:22.291Z,1.20
2022-08-03T04:47:50.638Z,0.70
2022-08-03T04:50:21.556Z,0.82
2022-08-03T04:53:06.854Z,1.00
2022-08-03T04:55:36.633Z,0.50
2022-08-03T04:58:05.067Z,1.17
2022-08-03T05:00:32.995Z,1.38
2022-08-03T05:03:00.642Z,0.70
2022-08-03T05:05:48.947Z,1.02
2022-08-03T05:08:15.925Z,0.80
2022-08-03T05:10:48.653Z,1.07
2022-08-03T05:13:16.320Z,0.77
2022-08-03T05:15:43.979Z,1.10
2022-08-03T05:18:14.157Z,0.90
2022-08-03T05:20:42.173Z,0.80
2022-08-03T05:23:09.737Z,1.33
2022-08-03T05:25:37.338Z,1.10
2022-08-03T05:28:07.089Z,1.50
2022-08-03T05:30:34.783Z,1.20
2022-08-03T05:33:03.867Z,1.20
2022-08-03T05:36:01.594Z,0.97
2022-08-03T05:38:23.993Z,0.70
2022-08-03T05:41:22.766Z,1.00
2022-08-03T05:43:46.413Z,0.70
2022-08-03T05:46:14.252Z,0.98
2022-08-03T05:48:42.469Z,0.80
2022-08-03T05:51:11.871Z,0.90
2022-08-03T05:53:41.404Z,1.27
2022-08-03T05:56:13.957Z,0.85
2022-08-03T05:58:45.639Z,1.20
2022-08-03T06:01:13.428Z,1.00
2022-08-03T06:03:41.353Z,0.88
2022-08-03T06:06:09.276Z,0.90
2022-08-03T06:08:37.117Z,0.90
2022-08-03T06:11:04.968Z,1.00
2022-08-03T06:13:32.746Z,0.70
2022-08-03T06:16:00.393Z,1.02
2022-08-03T06:18:28.162Z,1.45
2022-08-03T06:20:56.112Z,1.50
2022-08-03T06:23:52.943Z,1.58
2022-08-03T06:26:13.399Z,1.10
2022-08-03T06:28:51.728Z,1.13
2022-08-03T06:31:32.639Z,1.00
2022-08-03T06:34:32.099Z,0.80
2022-08-03T06:36:52.542Z,1.15
2022-08-03T06:39:23.550Z,0.70
2022-08-03T06:41:53.101Z,0.77
2022-08-03T06:44:20.967Z,1.00
2022-08-03T06:46:48.537Z,1.27
2022-08-03T06:49:16.318Z,1.13
2022-08-03T06:52:06.062Z,1.10
2022-08-03T06:54:33.215Z,1.00
2022-08-03T06:57:01.351Z,0.93
2022-08-03T07:00:09.142Z,1.02
2022-08-03T07:02:20.917Z,0.90
2022-08-03T07:04:49.240Z,0.90
2022-08-03T07:07:17.604Z,1.20
2022-08-03T07:09:57.316Z,1.10
2022-08-03T07:12:27.987Z,1.00
2022-08-03T07:15:00.637Z,1.10
2022-08-03T07:17:31.066Z,0.90
2022-08-03T07:20:00.167Z,0.85
2022-08-03T07:22:28.578Z,0.90
2022-08-03T07:24:56.799Z,1.02
2022-08-03T07:27:27.101Z,1.30
2022-08-03T07:29:55.524Z,1.30
2022-08-03T07:32:24.903Z,0.90
2022-08-03T07:34:54.793Z,1.30
2022-08-03T07:37:25.988Z,1.48
2022-08-03T07:39:53.577Z,1.02
2022-08-03T07:42:21.321Z,1.20
2022-08-03T07:44:48.905Z,1.30
2022-08-03T07:47:24.012Z,0.90
2022-08-03T07:49:51.817Z,1.02
2022-08-03T07:52:37.990Z,1.45
2022-08-03T07:55:10.080Z,1.03
2022-08-03T07:57:37.857Z,1.17
2022-08-03T08:00:09.153Z,0.85
2022-08-03T08:02:40.655Z,0.90
2022-08-03T08:05:08.820Z,1.10
2022-08-03T08:07:37.825Z,0.87
2022-08-03T08:10:13.639Z,1.20
2022-08-03T08:12:41.601Z,0.98
2022-08-03T08:15:09.755Z,1.20
2022-08-03T08:18:07.084Z,1.23
2022-08-03T08:20:38.008Z,1.30
2022-08-03T08:23:17.302Z,0.85
2022-08-03T08:25:56.356Z,0.82
2022-08-03T08:28:32.907Z,1.13
2022-08-03T08:31:02.394Z,1.25
2022-08-03T08:36:19.514Z,0.82
2022-08-03T08:38:47.649Z,0.73
2022-08-03T08:41:16.268Z,0.60
2022-08-03T08:43:44.098Z,0.80
2022-08-03T08:46:13.181Z,0.80
2022-08-03T08:48:53.018Z,0.70
2022-08-03T08:51:22.674Z,0.73
2022-08-03T08:53:53.943Z,0.73
2022-08-03T08:56:25.664Z,0.60
2022-08-03T08:58:59.474Z,0.63
2022-08-03T09:01:28.278Z,0.63
2022-08-03T09:03:56.251Z,0.88
2022-08-03T09:06:24.705Z,0.60
2022-08-03T09:08:52.501Z,0.60
2022-08-03T09:11:53.692Z,0.70
2022-08-03T09:14:37.028Z,0.80
2022-08-03T09:17:02.697Z,0.60
2022-08-03T09:19:34.545Z,0.60
2022-08-03T09:22:09.805Z,0.43
2022-08-03T09:24:41.444Z,0.40
2022-08-03T09:27:17.302Z,0.80
2022-08-03T09:29:48.905Z,0.50
2022-08-03T09:32:20.721Z,0.40
2022-08-03T09:34:49.543Z,0.70
2022-08-03T09:37:19.766Z,1.13
2022-08-03T09:39:47.838Z,0.52
2022-08-03T09:42:18.247Z,0.70
2022-08-03T09:44:48.334Z,0.90
2022-08-03T09:47:28.504Z,0.50
2022-08-03T09:50:05.909Z,0.50
2022-08-03T09:52:51.832Z,0.68
2022-08-03T09:56:33.263Z,0.60
2022-08-03T09:58:14.478Z,0.70
2022-08-03T10:01:04.562Z,0.75
2022-08-03T10:04:03.481Z,0.70
2022-08-03T10:06:28.881Z,0.80
2022-08-03T10:09:14.603Z,0.60
2022-08-03T10:11:43.819Z,0.50
2022-08-03T10:14:19.836Z,0.80
2022-08-03T10:16:48.669Z,0.73
2022-08-03T10:19:16.989Z,0.60
2022-08-03T10:21:51.402Z,0.68
2022-08-03T10:24:26.814Z,0.65
2022-08-03T10:27:02.960Z,0.70
2022-08-03T10:29:37.154Z,0.73
2022-08-03T10:32:10.751Z,0.80
2022-08-03T10:34:44.447Z,0.80
2022-08-03T10:37:14.458Z,0.95
2022-08-03T10:39:53.586Z,0.70
2022-08-03T10:42:24.610Z,1.03
2022-08-03T10:45:09.979Z,0.63
2022-08-03T10:47:37.992Z,0.75
2022-08-03T10:50:06.297Z,0.68
2022-08-03T10:52:39.536Z,0.85
2022-08-03T10:55:54.303Z,0.60
2022-08-03T10:58:53.273Z,0.63
2022-08-03T11:01:58.813Z,0.50
2022-08-03T11:04:30.228Z,0.50
2022-08-03T11:07:17.551Z,0.70
2022-08-03T11:09:50.310Z,0.70
2022-08-03T11:12:31.276Z,0.65
2022-08-03T11:15:07.835Z,0.50
2022-08-03T11:17:45.735Z,0.50
2022-08-03T11:20:46.049Z,0.60
2022-08-03T11:23:15.803Z,0.77
2022-08-03T11:26:09.032Z,0.60
2022-08-03T11:28:39.138Z,0.70
2022-08-03T11:31:46.870Z,0.73
2022-08-03T11:34:15.160Z,0.60
2022-08-03T11:37:23.297Z,0.70
2022-08-03T11:39:54.843Z,0.60
2022-08-03T11:42:22.545Z,0.57
2022-08-03T11:44:56.643Z,0.90
2022-08-03T11:47:27.201Z,0.60
2022-08-03T11:49:59.163Z,0.70
2022-08-03T11:52:33.975Z,0.90
2022-08-03T11:55:02.445Z,0.75
2022-08-03T11:59:00.775Z,0.60
2022-08-03T12:00:30.562Z,0.80
2022-08-03T12:03:06.584Z,0.60
2022-08-03T12:05:41.721Z,0.82
2022-08-03T12:08:39.841Z,0.60
2022-08-03T12:11:10.431Z,0.85
2022-08-03T12:14:44.815Z,1.02
2022-08-03T12:16:30.039Z,0.70
2022-08-03T12:19:02.516Z,0.80
2022-08-03T12:21:31.072Z,0.50
2022-08-03T12:24:00.676Z,0.65
2022-08-03T12:26:30.238Z,1.15
2022-08-03T12:28:58.523Z,0.70
2022-08-03T12:31:26.261Z,1.10
2022-08-03T12:34:00.444Z,0.60
2022-08-03T12:36:29.862Z,0.68
2022-08-03T12:39:04.935Z,0.60
2022-08-03T12:41:35.508Z,0.70
2022-08-03T12:44:05.471Z,0.93
2022-08-03T12:46:38.345Z,0.60
2022-08-03T12:49:07.932Z,0.60
2022-08-03T12:51:58.058Z,0.70
2022-08-03T12:54:32.238Z,0.70
2022-08-03T12:57:08.827Z,0.50
2022-08-03T12:59:53.335Z,0.60
2022-08-03T13:02:24.209Z,0.52
2022-08-03T13:04:54.551Z,0.60
2022-08-03T13:07:23.171Z,0.60
2022-08-03T13:09:53.260Z,0.60
2022-08-03T13:12:22.939Z,0.50
2022-08-03T13:14:53.681Z,0.60
2022-08-03T13:17:21.725Z,0.63
2022-08-03T13:19:50.694Z,0.57
2022-08-03T13:22:24.164Z,0.50
2022-08-03T13:24:56.261Z,0.50
2022-08-03T13:28:04.119Z,0.50
2022-08-03T13:30:13.307Z,0.45
2022-08-03T13:32:41.044Z,0.60
2022-08-03T13:35:09.927Z,0.50
2022-08-03T13:37:38.271Z,0.40
2022-08-03T13:40:08.356Z,0.50
2022-08-03T13:42:39.413Z,0.50
2022-08-03T13:45:07.617Z,0.60
2022-08-03T13:47:35.286Z,0.50
2022-08-03T13:50:03.393Z,0.40
2022-08-03T13:52:35.771Z,0.40
2022-08-03T13:55:06.083Z,0.60
2022-08-03T13:58:03.676Z,0.50
2022-08-03T14:00:29.036Z,0.40
2022-08-03T14:03:05.249Z,0.38
2022-08-03T14:05:35.967Z,0.40
2022-08-03T14:08:05.802Z,0.30
2022-08-03T14:10:39.401Z,0.40
2022-08-03T14:13:07.409Z,0.50
2022-08-03T14:15:37.261Z,0.60
2022-08-03T14:18:12.889Z,0.40
2022-08-03T14:20:48.989Z,0.40
2022-08-03T14:23:18.836Z,0.60
2022-08-03T14:25:50.457Z,0.40
2022-08-03T14:28:23.242Z,0.30
2022-08-03T14:30:52.983Z,0.50
2022-08-03T14:33:20.864Z,0.40
2022-08-03T14:35:49.127Z,0.60
2022-08-03T14:38:17.450Z,0.40
2022-08-03T14:40:45.275Z,0.52
2022-08-03T14:43:13.270Z,0.30
2022-08-03T14:45:41.583Z,0.45
2022-08-03T14:50:28.699Z,0.40
2022-08-03T14:50:57.145Z,0.55
2022-08-03T14:53:24.931Z,2.53
2022-08-03T14:55:53.519Z,0.40
2022-08-03T14:58:23.347Z,0.50
2022-08-03T15:00:52.686Z,0.50
2022-08-03T15:03:23.983Z,0.82
2022-08-03T15:05:53.947Z,0.50
2022-08-03T15:08:22.856Z,0.40
2022-08-03T15:10:50.882Z,0.40
2022-08-03T15:13:19.908Z,0.50
2022-08-03T15:15:48.153Z,0.45
2022-08-03T15:18:16.000Z,0.63
2022-08-03T15:20:45.857Z,0.50
2022-08-03T15:23:15.724Z,0.75
2022-08-03T15:26:03.758Z,0.30
2022-08-03T15:28:32.905Z,0.43
2022-08-03T15:31:01.229Z,0.50
2022-08-03T15:33:29.442Z,0.70
2022-08-03T15:35:57.364Z,0.63
2022-08-03T15:38:26.106Z,0.80
2022-08-03T15:40:55.659Z,0.40
2022-08-03T15:43:23.616Z,0.43
2022-08-03T15:46:12.803Z,0.47
2022-08-03T15:48:39.911Z,0.50
2022-08-03T15:51:08.375Z,0.50
2022-08-03T15:53:36.454Z,0.50
2022-08-03T15:56:10.027Z,0.57
2022-08-03T15:59:04.480Z,0.50
2022-08-03T16:01:27.738Z,0.40
2022-08-03T16:03:55.376Z,0.37
2022-08-03T16:06:35.442Z,0.52
2022-08-03T16:09:23.628Z,0.35
2022-08-03T16:11:56.272Z,0.45
2022-08-03T16:14:32.473Z,0.40
2022-08-03T16:17:04.678Z,0.40
2022-08-03T16:19:32.716Z,0.70
2022-08-03T16:22:01.094Z,0.43
2022-08-03T16:24:28.730Z,0.52
2022-08-03T16:26:57.143Z,0.50
2022-08-03T16:29:24.724Z,0.40
2022-08-03T16:31:53.009Z,0.35
2022-08-03T16:34:21.277Z,0.47
2022-08-03T16:36:48.995Z,0.43
2022-08-03T16:39:16.653Z,0.52
2022-08-03T16:41:53.942Z,0.40
2022-08-03T16:44:30.190Z,0.50
2022-08-03T16:46:59.110Z,0.40
2022-08-03T16:49:53.763Z,0.38
2022-08-03T16:52:16.597Z,0.40
2022-08-03T16:54:50.776Z,0.40
2022-08-03T16:57:56.323Z,0.38
2022-08-03T17:00:12.284Z,0.50
2022-08-03T17:03:03.846Z,0.43
2022-08-03T17:05:43.648Z,0.40
2022-08-03T17:08:16.019Z,0.40
2022-08-03T17:10:45.420Z,0.30
2022-08-03T17:13:21.852Z,0.63
2022-08-03T17:15:58.344Z,0.40
2022-08-03T17:18:35.729Z,0.40
2022-08-03T17:21:06.009Z,0.40
2022-08-03T17:23:50.331Z,0.40
2022-08-03T17:26:21.953Z,0.40
2022-08-03T17:28:57.781Z,0.50
2022-08-03T17:31:32.224Z,0.35
2022-08-03T17:34:09.900Z,0.30
2022-08-03T17:37:03.381Z,0.30
2022-08-03T17:39:55.616Z,0.50
2022-08-03T17:42:30.697Z,0.35
2022-08-03T17:45:03.969Z,0.50
2022-08-03T17:47:42.197Z,0.50
2022-08-03T17:50:24.702Z,0.45
2022-08-03T17:53:07.167Z,0.35
2022-08-03T17:55:56.942Z,0.30
2022-08-03T17:59:08.637Z,0.30
2022-08-03T18:02:12.218Z,0.40
2022-08-03T18:04:57.308Z,0.63
2022-08-03T18:07:41.280Z,0.30
2022-08-03T18:10:11.426Z,0.35
2022-08-03T18:12:57.627Z,0.20
2022-08-03T18:15:37.979Z,0.30
2022-08-03T18:20:56.979Z,0.35
2022-08-03T18:23:36.772Z,0.30
2022-08-03T18:26:12.037Z,0.30
2022-08-03T18:28:40.840Z,0.20
2022-08-03T18:32:00.251Z,0.20
2022-08-03T18:34:17.563Z,0.38
2022-08-03T18:36:55.789Z,0.30
2022-08-03T18:39:24.304Z,0.30
2022-08-03T18:41:52.437Z,0.40
2022-08-03T18:44:52.621Z,0.32
2022-08-03T18:47:21.436Z,0.20
2022-08-03T18:50:07.616Z,0.30
2022-08-03T18:52:59.864Z,0.30
2022-08-03T18:55:32.955Z,0.40
2022-08-03T18:58:18.387Z,0.40
2022-08-03T19:01:01.144Z,0.43
2022-08-03T19:03:43.339Z,0.30
2022-08-03T19:06:23.842Z,0.30
2022-08-03T19:09:04.089Z,0.30
2022-08-03T19:12:12.363Z,0.30
2022-08-03T19:14:34.771Z,0.20
2022-08-03T19:17:07.807Z,1.13
2022-08-03T19:19:44.075Z,0.40
2022-08-03T19:22:16.257Z,0.60
2022-08-03T19:24:45.961Z,0.40
2022-08-03T19:27:16.082Z,0.32
2022-08-03T19:29:58.907Z,0.30
2022-08-03T19:32:30.488Z,0.40
2022-08-03T19:35:01.407Z,0.40
2022-08-03T19:37:38.094Z,0.40
2022-08-03T19:40:10.854Z,0.43
2022-08-03T19:42:44.691Z,0.40
2022-08-03T19:46:05.183Z,0.85
2022-08-03T19:48:27.410Z,0.50
2022-08-03T19:50:57.566Z,0.52
2022-08-03T19:53:35.194Z,0.50
2022-08-03T19:56:06.461Z,0.40
2022-08-03T19:58:35.696Z,0.68
2022-08-03T20:01:19.198Z,0.47
2022-08-03T20:03:48.609Z,0.50
2022-08-03T20:06:20.693Z,1.35
2022-08-03T20:08:51.548Z,0.52
2022-08-03T20:11:20.696Z,0.63
2022-08-03T20:13:58.153Z,0.50
2022-08-03T20:16:26.897Z,0.60
2022-08-03T20:18:54.542Z,0.60
2022-08-03T20:21:25.668Z,0.60
2022-08-03T20:24:02.829Z,0.50
2022-08-03T20:26:53.370Z,0.40
2022-08-03T20:30:05.199Z,0.70
2022-08-03T20:32:19.840Z,0.57
2022-08-03T20:34:52.982Z,0.63
2022-08-03T20:37:20.879Z,0.63
2022-08-03T20:39:49.498Z,0.77
2022-08-03T20:42:21.770Z,0.60
2022-08-03T20:45:06.216Z,0.40
2022-08-03T20:47:50.468Z,0.80
2022-08-03T20:50:19.128Z,0.50
2022-08-03T20:52:50.660Z,0.60
2022-08-03T20:55:20.300Z,0.50
2022-08-03T20:58:07.443Z,0.55
2022-08-03T21:00:35.230Z,0.73
2022-08-03T21:03:02.930Z,0.65
2022-08-03T21:05:48.354Z,0.60
2022-08-03T21:08:22.506Z,0.60
2022-08-03T21:10:52.709Z,0.52
2022-08-03T21:13:04.493Z,0.50
2022-08-03T21:13:32.176Z,0.68
2022-08-03T21:16:11.484Z,0.57
2022-08-03T21:18:51.902Z,0.50
2022-08-03T21:21:22.906Z,0.60
2022-08-03T21:23:53.674Z,0.60
2022-08-03T21:26:24.372Z,0.50
2022-08-03T21:28:54.562Z,0.52
2022-08-03T21:31:26.272Z,0.60
2022-08-03T21:34:04.000Z,0.70
2022-08-03T21:36:36.747Z,0.40
2022-08-03T21:39:06.742Z,0.60
2022-08-03T21:41:35.453Z,0.70
2022-08-03T21:44:04.059Z,0.40
2022-08-03T21:46:37.751Z,0.50
2022-08-03T21:50:05.704Z,0.52
2022-08-03T21:52:03.054Z,1.45
2022-08-03T21:54:41.028Z,0.60
2022-08-03T21:57:25.783Z,0.60
2022-08-03T21:59:55.829Z,0.80
2022-08-03T22:02:28.098Z,0.60
2022-08-03T22:04:59.182Z,0.45
2022-08-03T22:07:29.623Z,0.70
2022-08-03T22:09:59.875Z,0.50
2022-08-03T22:12:29.465Z,0.60
2022-08-03T22:15:00.920Z,0.60
2022-08-03T22:17:55.621Z,0.50
2022-08-03T22:20:23.941Z,0.70
2022-08-03T22:22:56.550Z,0.43
2022-08-03T22:25:31.606Z,1.35
2022-08-03T22:28:11.849Z,0.70
2022-08-03T22:30:41.468Z,0.40
2022-08-03T22:33:11.983Z,0.50
2022-08-03T22:35:47.528Z,0.60
2022-08-03T22:38:19.441Z,0.47
2022-08-03T22:40:51.163Z,0.85
2022-08-03T22:43:26.857Z,0.80
2022-08-03T22:46:09.981Z,0.68
2022-08-03T22:48:41.705Z,0.70
2022-08-03T22:51:10.322Z,0.80
2022-08-03T22:53:39.068Z,0.60
2022-08-03T22:56:07.033Z,0.38
2022-08-03T22:58:34.704Z,0.63
2022-08-03T23:01:06.696Z,0.57
2022-08-03T23:04:01.150Z,0.47
2022-08-03T23:06:34.649Z,0.60
2022-08-03T23:09:13.619Z,0.60
2022-08-03T23:11:45.413Z,0.80
2022-08-03T23:14:16.283Z,0.97
2022-08-03T23:16:45.990Z,0.90
2022-08-03T23:19:17.325Z,0.73
2022-08-03T23:22:02.845Z,0.57
2022-08-03T23:24:36.159Z,0.70
2022-08-03T23:27:09.417Z,0.80
2022-08-03T23:29:39.190Z,0.77
2022-08-03T23:32:07.222Z,0.93
2022-08-03T23:34:56.931Z,0.50
2022-08-03T23:37:26.031Z,0.60
2022-08-03T23:39:57.072Z,0.87
2022-08-03T23:42:26.407Z,0.60
2022-08-03T23:44:56.502Z,0.57
2022-08-03T23:47:46.999Z,0.55
2022-08-03T23:50:16.162Z,1.23
2022-08-03T23:52:55.819Z,0.80
2022-08-03T23:55:54.461Z,0.77
2022-08-03T23:58:41.090Z,0.90
